EWG84T EDDH-LSZH
Flight info
| Callsign | EWG84T |
|---|---|
| Flight time | 1h 22m |
| Altitude | 35000 |
| Route | IDEKO N850 ROBEG DCT SWALM DCT OMOGI T721 LAMGO T721 RILAX |
| Aircraft | A320/M-SDE3FGHIRWY/LB1 |
Departure
| Time | 2026-05-05 17:56 |
|---|---|
| Airport | Hamburg Helmut Schmidt Airport (EDDH) |
Arrival
| Time | 2026-05-05 19:18 |
|---|---|
| Airport | Zürich Airport (LSZH) |
| Time | Latitude | Longitude | Altitude | Speed | Heading |
|---|---|---|---|---|---|
| 2026-05-05 17:28 | 53.63121 | 10.00059 | 49 ft | 0 kts | 140° |
| 2026-05-05 17:42 | 53.63130 | 10.00045 | 48 ft | 4 kts | 140° |
| 2026-05-05 17:43 | 53.63147 | 10.00021 | 48 ft | 3 kts | 142° |
| 2026-05-05 17:43 | 53.63166 | 10.00011 | 45 ft | 4 kts | 219° |
| 2026-05-05 17:43 | 53.63183 | 10.00042 | 42 ft | 3 kts | 230° |
| 2026-05-05 17:43 | 53.63185 | 10.00046 | 45 ft | 0 kts | 230° |
| 2026-05-05 17:47 | 53.63180 | 10.00034 | 48 ft | 2 kts | 230° |
| 2026-05-05 17:47 | 53.63174 | 10.00022 | 48 ft | 1 kts | 230° |
| 2026-05-05 17:47 | 53.63163 | 10.00000 | 47 ft | 4 kts | 230° |
| 2026-05-05 17:47 | 53.63147 | 9.99968 | 48 ft | 3 kts | 230° |
| 2026-05-05 17:48 | 53.63134 | 9.99940 | 48 ft | 5 kts | 230° |
| 2026-05-05 17:48 | 53.63093 | 9.99914 | 48 ft | 8 kts | 174° |
| 2026-05-05 17:48 | 53.63040 | 9.99925 | 48 ft | 6 kts | 171° |
| 2026-05-05 17:48 | 53.63004 | 9.99950 | 48 ft | 5 kts | 152° |
| 2026-05-05 17:49 | 53.62977 | 9.99974 | 48 ft | 4 kts | 152° |
| 2026-05-05 17:49 | 53.62950 | 9.99997 | 46 ft | 8 kts | 153° |
| 2026-05-05 17:49 | 53.62869 | 10.00051 | 47 ft | 17 kts | 161° |
| 2026-05-05 17:49 | 53.62753 | 10.00152 | 48 ft | 18 kts | 153° |
| 2026-05-05 17:50 | 53.62670 | 10.00224 | 48 ft | 9 kts | 152° |
| 2026-05-05 17:50 | 53.62623 | 10.00265 | 48 ft | 5 kts | 152° |
| 2026-05-05 17:50 | 53.62595 | 10.00267 | 48 ft | 3 kts | 204° |
| 2026-05-05 17:50 | 53.62582 | 10.00241 | 48 ft | 3 kts | 237° |
| 2026-05-05 17:51 | 53.62572 | 10.00210 | 45 ft | 3 kts | 240° |
| 2026-05-05 17:51 | 53.62567 | 10.00194 | 46 ft | 0 kts | 242° |
| 2026-05-05 17:53 | 53.62566 | 10.00192 | 47 ft | 1 kts | 242° |
| 2026-05-05 17:53 | 53.62555 | 10.00157 | 47 ft | 4 kts | 242° |
| 2026-05-05 17:54 | 53.62542 | 10.00091 | 47 ft | 6 kts | 266° |
| 2026-05-05 17:54 | 53.62554 | 10.00032 | 44 ft | 6 kts | 302° |
| 2026-05-05 17:54 | 53.62586 | 9.99989 | 47 ft | 0 kts | 331° |
| 2026-05-05 17:55 | 53.62627 | 9.99951 | 47 ft | 34 kts | 331° |
| 2026-05-05 17:55 | 53.63063 | 9.99578 | 45 ft | 104 kts | 332° |
| 2026-05-05 17:56 | 53.63876 | 9.98880 | 50 ft | 157 kts | 333° |
| 2026-05-05 17:56 | 53.64929 | 9.97956 | 390 ft | 172 kts | 334° |
| 2026-05-05 17:56 | 53.65994 | 9.97044 | 1079 ft | 172 kts | 336° |
| 2026-05-05 17:56 | 53.67104 | 9.96107 | 1604 ft | 188 kts | 336° |
| 2026-05-05 17:57 | 53.68343 | 9.95058 | 1924 ft | 211 kts | 336° |
| 2026-05-05 17:57 | 53.69677 | 9.93919 | 2672 ft | 215 kts | 335° |
| 2026-05-05 17:57 | 53.70538 | 9.93094 | 3225 ft | 217 kts | 324° |
| 2026-05-05 17:57 | 53.71399 | 9.90998 | 3935 ft | 227 kts | 285° |
| 2026-05-05 17:58 | 53.71202 | 9.87248 | 4445 ft | 260 kts | 255° |
| 2026-05-05 17:58 | 53.70631 | 9.84256 | 5079 ft | 272 kts | 251° |
| 2026-05-05 17:58 | 53.70209 | 9.82257 | 5675 ft | 272 kts | 250° |
| 2026-05-05 17:58 | 53.69563 | 9.79272 | 6614 ft | 271 kts | 250° |
| 2026-05-05 17:59 | 53.68925 | 9.76282 | 7515 ft | 271 kts | 251° |
| 2026-05-05 17:59 | 53.68304 | 9.73283 | 8364 ft | 272 kts | 251° |
| 2026-05-05 17:59 | 53.67689 | 9.70241 | 9210 ft | 274 kts | 251° |
| 2026-05-05 17:59 | 53.67081 | 9.67186 | 10036 ft | 277 kts | 252° |
| 2026-05-05 18:00 | 53.66374 | 9.64079 | 10393 ft | 296 kts | 243° |
| 2026-05-05 18:00 | 53.65151 | 9.61121 | 10592 ft | 319 kts | 227° |
| 2026-05-05 18:00 | 53.63384 | 9.58756 | 11088 ft | 331 kts | 211° |
| 2026-05-05 18:00 | 53.61227 | 9.57269 | 11745 ft | 339 kts | 195° |
| 2026-05-05 18:01 | 53.58880 | 9.56668 | 12441 ft | 344 kts | 188° |
| 2026-05-05 18:01 | 53.56483 | 9.56188 | 13148 ft | 348 kts | 188° |
| 2026-05-05 18:01 | 53.54071 | 9.55715 | 13819 ft | 352 kts | 188° |
| 2026-05-05 18:01 | 53.51623 | 9.55237 | 14422 ft | 355 kts | 188° |
| 2026-05-05 18:02 | 53.49166 | 9.54755 | 15035 ft | 358 kts | 188° |
| 2026-05-05 18:02 | 53.46677 | 9.54268 | 15642 ft | 361 kts | 188° |
| 2026-05-05 18:02 | 53.44181 | 9.53781 | 16247 ft | 364 kts | 188° |
| 2026-05-05 18:02 | 53.41652 | 9.53287 | 16849 ft | 366 kts | 188° |
| 2026-05-05 18:03 | 53.39116 | 9.52789 | 17451 ft | 369 kts | 188° |
| 2026-05-05 18:03 | 53.36548 | 9.52285 | 18045 ft | 372 kts | 188° |
| 2026-05-05 18:03 | 53.33973 | 9.51777 | 18584 ft | 375 kts | 188° |
| 2026-05-05 18:03 | 53.31370 | 9.51265 | 19114 ft | 377 kts | 188° |
| 2026-05-05 18:04 | 53.28766 | 9.50755 | 19662 ft | 379 kts | 188° |
| 2026-05-05 18:04 | 53.26147 | 9.50253 | 20208 ft | 381 kts | 188° |
| 2026-05-05 18:04 | 53.23499 | 9.49802 | 20752 ft | 383 kts | 187° |
| 2026-05-05 18:04 | 53.20844 | 9.49392 | 21301 ft | 385 kts | 187° |
| 2026-05-05 18:05 | 53.18144 | 9.48993 | 21831 ft | 387 kts | 187° |
| 2026-05-05 18:05 | 53.15450 | 9.48602 | 22343 ft | 390 kts | 187° |
| 2026-05-05 18:05 | 53.12763 | 9.48208 | 22843 ft | 392 kts | 187° |
| 2026-05-05 18:05 | 53.10071 | 9.47808 | 23323 ft | 394 kts | 187° |
| 2026-05-05 18:06 | 53.07287 | 9.47385 | 23750 ft | 396 kts | 187° |
| 2026-05-05 18:06 | 53.05466 | 9.47105 | 24021 ft | 397 kts | 187° |
| 2026-05-05 18:06 | 53.01830 | 9.46541 | 24536 ft | 399 kts | 187° |
| 2026-05-05 18:06 | 52.99053 | 9.46112 | 24914 ft | 401 kts | 187° |
| 2026-05-05 18:07 | 52.96257 | 9.45685 | 25293 ft | 403 kts | 187° |
| 2026-05-05 18:07 | 52.93478 | 9.45262 | 25658 ft | 404 kts | 188° |
| 2026-05-05 18:07 | 52.90617 | 9.44829 | 26030 ft | 406 kts | 188° |
| 2026-05-05 18:07 | 52.87804 | 9.44401 | 26392 ft | 407 kts | 188° |
| 2026-05-05 18:08 | 52.84980 | 9.43968 | 26751 ft | 409 kts | 188° |
| 2026-05-05 18:08 | 52.82140 | 9.43538 | 27107 ft | 410 kts | 188° |
| 2026-05-05 18:08 | 52.79295 | 9.43115 | 27452 ft | 412 kts | 188° |
| 2026-05-05 18:08 | 52.76435 | 9.42691 | 27782 ft | 413 kts | 188° |
| 2026-05-05 18:09 | 52.73565 | 9.42260 | 28107 ft | 415 kts | 188° |
| 2026-05-05 18:09 | 52.70700 | 9.41831 | 28419 ft | 416 kts | 187° |
| 2026-05-05 18:09 | 52.67815 | 9.41397 | 28722 ft | 418 kts | 187° |
| 2026-05-05 18:09 | 52.64947 | 9.40966 | 29015 ft | 419 kts | 187° |
| 2026-05-05 18:10 | 52.62002 | 9.40524 | 29306 ft | 421 kts | 187° |
| 2026-05-05 18:10 | 52.59114 | 9.40093 | 29585 ft | 422 kts | 187° |
| 2026-05-05 18:10 | 52.56148 | 9.39654 | 29854 ft | 424 kts | 187° |
| 2026-05-05 18:10 | 52.53212 | 9.39218 | 30098 ft | 425 kts | 187° |
| 2026-05-05 18:11 | 52.50291 | 9.38782 | 30328 ft | 426 kts | 187° |
| 2026-05-05 18:11 | 52.47311 | 9.38337 | 30554 ft | 426 kts | 187° |
| 2026-05-05 18:11 | 52.44339 | 9.37891 | 30819 ft | 425 kts | 187° |
| 2026-05-05 18:11 | 52.41418 | 9.37455 | 31145 ft | 423 kts | 187° |
| 2026-05-05 18:12 | 52.38486 | 9.37021 | 31472 ft | 421 kts | 187° |
| 2026-05-05 18:12 | 52.35570 | 9.36592 | 31798 ft | 419 kts | 187° |
| 2026-05-05 18:12 | 52.32671 | 9.36164 | 32119 ft | 417 kts | 187° |
| 2026-05-05 18:12 | 52.29789 | 9.35741 | 32437 ft | 415 kts | 187° |
| 2026-05-05 18:13 | 52.26971 | 9.35330 | 32745 ft | 413 kts | 187° |
| 2026-05-05 18:13 | 52.24119 | 9.34908 | 33048 ft | 412 kts | 187° |
| 2026-05-05 18:13 | 52.21253 | 9.34483 | 33345 ft | 410 kts | 187° |
| 2026-05-05 18:13 | 52.18438 | 9.34065 | 33638 ft | 409 kts | 187° |
| 2026-05-05 18:14 | 52.15605 | 9.33647 | 33937 ft | 407 kts | 187° |
| 2026-05-05 18:14 | 52.12791 | 9.33235 | 34168 ft | 407 kts | 187° |
| 2026-05-05 18:14 | 52.09965 | 9.32820 | 34370 ft | 407 kts | 187° |
| 2026-05-05 18:14 | 52.07148 | 9.32405 | 34551 ft | 408 kts | 187° |
| 2026-05-05 18:15 | 52.04315 | 9.31991 | 34739 ft | 408 kts | 187° |
| 2026-05-05 18:15 | 51.98665 | 9.31179 | 34835 ft | 407 kts | 187° |
| 2026-05-05 18:16 | 51.93030 | 9.30360 | 34830 ft | 406 kts | 187° |
| 2026-05-05 18:16 | 51.87402 | 9.29536 | 34826 ft | 406 kts | 187° |
| 2026-05-05 18:17 | 51.81774 | 9.28725 | 34825 ft | 406 kts | 186° |
| 2026-05-05 18:17 | 51.76143 | 9.27912 | 34818 ft | 406 kts | 186° |
| 2026-05-05 18:18 | 51.70513 | 9.27107 | 34816 ft | 406 kts | 186° |
| 2026-05-05 18:18 | 51.64897 | 9.26301 | 34810 ft | 406 kts | 186° |
| 2026-05-05 18:19 | 51.59270 | 9.25493 | 34807 ft | 406 kts | 186° |
| 2026-05-05 18:19 | 51.53682 | 9.24696 | 34805 ft | 406 kts | 186° |
| 2026-05-05 18:20 | 51.48060 | 9.23897 | 34803 ft | 406 kts | 186° |
| 2026-05-05 18:20 | 51.42436 | 9.23098 | 34802 ft | 406 kts | 186° |
| 2026-05-05 18:21 | 51.36811 | 9.22306 | 34800 ft | 406 kts | 185° |
| 2026-05-05 18:21 | 51.31187 | 9.21506 | 34802 ft | 406 kts | 185° |
| 2026-05-05 18:22 | 51.25571 | 9.20708 | 34801 ft | 406 kts | 185° |
| 2026-05-05 18:22 | 51.19929 | 9.19908 | 34800 ft | 406 kts | 185° |
| 2026-05-05 18:23 | 51.14317 | 9.19113 | 34801 ft | 406 kts | 185° |
| 2026-05-05 18:23 | 51.08682 | 9.18329 | 34795 ft | 406 kts | 185° |
| 2026-05-05 18:24 | 51.03048 | 9.17550 | 34795 ft | 407 kts | 185° |
| 2026-05-05 18:24 | 50.97408 | 9.16763 | 34792 ft | 407 kts | 185° |
| 2026-05-05 18:25 | 50.91763 | 9.15974 | 34794 ft | 407 kts | 185° |
| 2026-05-05 18:25 | 50.86148 | 9.15204 | 34792 ft | 408 kts | 184° |
| 2026-05-05 18:26 | 50.80494 | 9.14430 | 34791 ft | 408 kts | 184° |
| 2026-05-05 18:26 | 50.74838 | 9.13640 | 34792 ft | 408 kts | 184° |
| 2026-05-05 18:27 | 50.69178 | 9.12854 | 34796 ft | 408 kts | 184° |
| 2026-05-05 18:27 | 50.63514 | 9.12068 | 34798 ft | 409 kts | 184° |
| 2026-05-05 18:28 | 50.54996 | 9.10903 | 34798 ft | 409 kts | 184° |
| 2026-05-05 18:28 | 50.49331 | 9.10136 | 34798 ft | 409 kts | 184° |
| 2026-05-05 18:29 | 50.43652 | 9.09370 | 34800 ft | 410 kts | 184° |
| 2026-05-05 18:29 | 50.37966 | 9.08590 | 34801 ft | 410 kts | 184° |
| 2026-05-05 18:30 | 50.32275 | 9.07817 | 34804 ft | 410 kts | 184° |
| 2026-05-05 18:30 | 50.26594 | 9.07056 | 34804 ft | 411 kts | 184° |
| 2026-05-05 18:31 | 50.20890 | 9.06282 | 34809 ft | 411 kts | 183° |
| 2026-05-05 18:31 | 50.15189 | 9.05521 | 34804 ft | 411 kts | 183° |
| 2026-05-05 18:32 | 50.09479 | 9.04753 | 34804 ft | 412 kts | 183° |
| 2026-05-05 18:32 | 50.03803 | 9.03989 | 34806 ft | 412 kts | 183° |
| 2026-05-05 18:33 | 49.98052 | 9.03224 | 34805 ft | 413 kts | 183° |
| 2026-05-05 18:33 | 49.92357 | 9.02466 | 34811 ft | 413 kts | 184° |
| 2026-05-05 18:34 | 49.86622 | 9.01705 | 34814 ft | 414 kts | 183° |
| 2026-05-05 18:34 | 49.80845 | 9.00937 | 34814 ft | 415 kts | 184° |
| 2026-05-05 18:35 | 49.75089 | 9.00162 | 34818 ft | 415 kts | 184° |
| 2026-05-05 18:35 | 49.69323 | 8.99401 | 34818 ft | 416 kts | 184° |
| 2026-05-05 18:36 | 49.63564 | 8.98358 | 34818 ft | 417 kts | 188° |
| 2026-05-05 18:36 | 49.57847 | 8.96781 | 34817 ft | 418 kts | 188° |
| 2026-05-05 18:37 | 49.52114 | 8.95208 | 34821 ft | 419 kts | 188° |
| 2026-05-05 18:37 | 49.46408 | 8.93652 | 34820 ft | 419 kts | 189° |
| 2026-05-05 18:38 | 49.40659 | 8.92077 | 34820 ft | 420 kts | 189° |
| 2026-05-05 18:38 | 49.34918 | 8.90509 | 34820 ft | 420 kts | 189° |
| 2026-05-05 18:39 | 49.29148 | 8.88936 | 34816 ft | 421 kts | 189° |
| 2026-05-05 18:39 | 49.26256 | 8.88153 | 34348 ft | 424 kts | 189° |
| 2026-05-05 18:39 | 49.23358 | 8.87368 | 33815 ft | 423 kts | 188° |
| 2026-05-05 18:40 | 49.20466 | 8.86584 | 33174 ft | 423 kts | 188° |
| 2026-05-05 18:40 | 49.17561 | 8.85801 | 32559 ft | 422 kts | 188° |
| 2026-05-05 18:40 | 49.14685 | 8.85017 | 31956 ft | 419 kts | 189° |
| 2026-05-05 18:40 | 49.11813 | 8.84231 | 31354 ft | 417 kts | 189° |
| 2026-05-05 18:41 | 49.08988 | 8.83456 | 30771 ft | 410 kts | 189° |
| 2026-05-05 18:41 | 49.06196 | 8.82688 | 30206 ft | 406 kts | 189° |
| 2026-05-05 18:41 | 49.03431 | 8.81933 | 29599 ft | 402 kts | 189° |
| 2026-05-05 18:41 | 49.00690 | 8.81188 | 28943 ft | 398 kts | 189° |
| 2026-05-05 18:42 | 48.97974 | 8.80453 | 28297 ft | 394 kts | 189° |
| 2026-05-05 18:42 | 48.95285 | 8.79731 | 27692 ft | 393 kts | 189° |
| 2026-05-05 18:42 | 48.92605 | 8.79011 | 27115 ft | 390 kts | 189° |
| 2026-05-05 18:42 | 48.89953 | 8.78293 | 26597 ft | 386 kts | 189° |
| 2026-05-05 18:43 | 48.87311 | 8.77580 | 26084 ft | 383 kts | 190° |
| 2026-05-05 18:43 | 48.84691 | 8.76873 | 25583 ft | 381 kts | 190° |
| 2026-05-05 18:43 | 48.82129 | 8.76164 | 25107 ft | 378 kts | 190° |
| 2026-05-05 18:43 | 48.79562 | 8.75431 | 24787 ft | 374 kts | 191° |
| 2026-05-05 18:44 | 48.76984 | 8.74687 | 24530 ft | 372 kts | 191° |
| 2026-05-05 18:44 | 48.74445 | 8.73955 | 24303 ft | 371 kts | 191° |
| 2026-05-05 18:44 | 48.71945 | 8.73233 | 24069 ft | 369 kts | 191° |
| 2026-05-05 18:44 | 48.70245 | 8.72742 | 23913 ft | 368 kts | 191° |
| 2026-05-05 18:45 | 48.66912 | 8.71782 | 23601 ft | 366 kts | 190° |
| 2026-05-05 18:45 | 48.64413 | 8.71068 | 23368 ft | 365 kts | 190° |
| 2026-05-05 18:45 | 48.61923 | 8.70358 | 23091 ft | 364 kts | 190° |
| 2026-05-05 18:45 | 48.59445 | 8.69654 | 22782 ft | 362 kts | 191° |
| 2026-05-05 18:46 | 48.57768 | 8.69177 | 22598 ft | 361 kts | 191° |
| 2026-05-05 18:46 | 48.55312 | 8.68481 | 22329 ft | 359 kts | 191° |
| 2026-05-05 18:46 | 48.52856 | 8.67785 | 22048 ft | 358 kts | 191° |
| 2026-05-05 18:46 | 48.50421 | 8.67095 | 21797 ft | 356 kts | 191° |
| 2026-05-05 18:47 | 48.47995 | 8.66411 | 21537 ft | 355 kts | 191° |
| 2026-05-05 18:47 | 48.45568 | 8.65727 | 21303 ft | 354 kts | 191° |
| 2026-05-05 18:47 | 48.43177 | 8.65049 | 21089 ft | 353 kts | 191° |
| 2026-05-05 18:47 | 48.40744 | 8.64358 | 20881 ft | 352 kts | 191° |
| 2026-05-05 18:48 | 48.38369 | 8.63686 | 20692 ft | 351 kts | 191° |
| 2026-05-05 18:48 | 48.35944 | 8.63003 | 20508 ft | 350 kts | 191° |
| 2026-05-05 18:48 | 48.33579 | 8.62342 | 20335 ft | 349 kts | 191° |
| 2026-05-05 18:48 | 48.31197 | 8.61676 | 20135 ft | 349 kts | 191° |
| 2026-05-05 18:49 | 48.28790 | 8.60999 | 19903 ft | 347 kts | 192° |
| 2026-05-05 18:49 | 48.26445 | 8.60338 | 19687 ft | 346 kts | 192° |
| 2026-05-05 18:49 | 48.24053 | 8.59664 | 19464 ft | 345 kts | 192° |
| 2026-05-05 18:49 | 48.21723 | 8.59009 | 19249 ft | 344 kts | 192° |
| 2026-05-05 18:50 | 48.19347 | 8.58346 | 19031 ft | 343 kts | 192° |
| 2026-05-05 18:50 | 48.17034 | 8.57703 | 18820 ft | 341 kts | 192° |
| 2026-05-05 18:50 | 48.14709 | 8.57055 | 18606 ft | 340 kts | 192° |
| 2026-05-05 18:50 | 48.12380 | 8.56404 | 18392 ft | 339 kts | 192° |
| 2026-05-05 18:51 | 48.10067 | 8.55783 | 18184 ft | 338 kts | 191° |
| 2026-05-05 18:51 | 48.07749 | 8.55189 | 17944 ft | 336 kts | 192° |
| 2026-05-05 18:51 | 48.05447 | 8.54555 | 17694 ft | 335 kts | 192° |
| 2026-05-05 18:51 | 48.03161 | 8.53905 | 17457 ft | 333 kts | 193° |
| 2026-05-05 18:52 | 48.00878 | 8.53306 | 17215 ft | 333 kts | 189° |
| 2026-05-05 18:52 | 47.98572 | 8.53100 | 16980 ft | 333 kts | 181° |
| 2026-05-05 18:52 | 47.96270 | 8.53382 | 16738 ft | 334 kts | 174° |
| 2026-05-05 18:52 | 47.93994 | 8.54164 | 16515 ft | 336 kts | 166° |
| 2026-05-05 18:53 | 47.91817 | 8.55405 | 16204 ft | 336 kts | 158° |
| 2026-05-05 18:53 | 47.89763 | 8.57083 | 15791 ft | 337 kts | 150° |
| 2026-05-05 18:53 | 47.88044 | 8.58959 | 15438 ft | 338 kts | 144° |
| 2026-05-05 18:53 | 47.86254 | 8.61161 | 15293 ft | 328 kts | 144° |
| 2026-05-05 18:54 | 47.84525 | 8.63276 | 15156 ft | 318 kts | 144° |
| 2026-05-05 18:54 | 47.82824 | 8.65344 | 14893 ft | 313 kts | 145° |
| 2026-05-05 18:54 | 47.81139 | 8.67381 | 14570 ft | 311 kts | 145° |
| 2026-05-05 18:54 | 47.79466 | 8.69402 | 14225 ft | 310 kts | 145° |
| 2026-05-05 18:55 | 47.77786 | 8.71433 | 13906 ft | 309 kts | 145° |
| 2026-05-05 18:55 | 47.76125 | 8.73439 | 13569 ft | 308 kts | 145° |
| 2026-05-05 18:55 | 47.74464 | 8.75442 | 13203 ft | 306 kts | 145° |
| 2026-05-05 18:55 | 47.72812 | 8.77430 | 12857 ft | 305 kts | 145° |
| 2026-05-05 18:56 | 47.71180 | 8.79397 | 12503 ft | 303 kts | 145° |
| 2026-05-05 18:56 | 47.69542 | 8.81371 | 12144 ft | 302 kts | 145° |
| 2026-05-05 18:56 | 47.67917 | 8.83333 | 11796 ft | 300 kts | 145° |
| 2026-05-05 18:56 | 47.66305 | 8.85278 | 11484 ft | 298 kts | 145° |
| 2026-05-05 18:57 | 47.64699 | 8.87212 | 11145 ft | 297 kts | 145° |
| 2026-05-05 18:57 | 47.63181 | 8.89271 | 10901 ft | 297 kts | 137° |
| 2026-05-05 18:57 | 47.61850 | 8.91622 | 10885 ft | 293 kts | 130° |
| 2026-05-05 18:57 | 47.60774 | 8.94107 | 10887 ft | 282 kts | 122° |
| 2026-05-05 18:58 | 47.59888 | 8.96635 | 10887 ft | 272 kts | 121° |
| 2026-05-05 18:58 | 47.59023 | 8.99105 | 10888 ft | 270 kts | 121° |
| 2026-05-05 18:58 | 47.58153 | 9.01582 | 10886 ft | 269 kts | 121° |
| 2026-05-05 18:58 | 47.57279 | 9.04025 | 10884 ft | 268 kts | 126° |
| 2026-05-05 18:59 | 47.56049 | 9.06008 | 10885 ft | 259 kts | 151° |
| 2026-05-05 18:59 | 47.54422 | 9.07026 | 10889 ft | 251 kts | 175° |
| 2026-05-05 18:59 | 47.52715 | 9.06957 | 10888 ft | 244 kts | 198° |
| 2026-05-05 18:59 | 47.51201 | 9.05904 | 10889 ft | 241 kts | 219° |
| 2026-05-05 19:00 | 47.50100 | 9.04078 | 10888 ft | 240 kts | 241° |
| 2026-05-05 19:00 | 47.49566 | 9.01737 | 10890 ft | 242 kts | 262° |
| 2026-05-05 19:00 | 47.49701 | 8.99255 | 10889 ft | 247 kts | 284° |
| 2026-05-05 19:00 | 47.50368 | 8.96892 | 10893 ft | 250 kts | 292° |
| 2026-05-05 19:01 | 47.51137 | 8.94587 | 10891 ft | 251 kts | 293° |
| 2026-05-05 19:01 | 47.51925 | 8.92323 | 10890 ft | 250 kts | 294° |
| 2026-05-05 19:01 | 47.52728 | 8.90039 | 10893 ft | 250 kts | 294° |
| 2026-05-05 19:01 | 47.53552 | 8.87777 | 10890 ft | 251 kts | 300° |
| 2026-05-05 19:02 | 47.54796 | 8.85930 | 10891 ft | 258 kts | 324° |
| 2026-05-05 19:02 | 47.56488 | 8.84972 | 10892 ft | 267 kts | 349° |
| 2026-05-05 19:02 | 47.58348 | 8.85187 | 10894 ft | 275 kts | 17° |
| 2026-05-05 19:02 | 47.59987 | 8.86659 | 10889 ft | 279 kts | 46° |
| 2026-05-05 19:03 | 47.61003 | 8.89079 | 10896 ft | 279 kts | 75° |
| 2026-05-05 19:03 | 47.61184 | 8.91902 | 10890 ft | 274 kts | 103° |
| 2026-05-05 19:03 | 47.60576 | 8.94521 | 10894 ft | 269 kts | 120° |
| 2026-05-05 19:03 | 47.59750 | 8.97021 | 10887 ft | 269 kts | 121° |
| 2026-05-05 19:04 | 47.58896 | 8.99491 | 10889 ft | 269 kts | 121° |
| 2026-05-05 19:04 | 47.58041 | 9.01954 | 10891 ft | 270 kts | 118° |
| 2026-05-05 19:04 | 47.57607 | 9.04671 | 10890 ft | 276 kts | 90° |
| 2026-05-05 19:04 | 47.58071 | 9.07409 | 10893 ft | 278 kts | 60° |
| 2026-05-05 19:05 | 47.59322 | 9.09560 | 10719 ft | 275 kts | 32° |
| 2026-05-05 19:05 | 47.61050 | 9.10608 | 10387 ft | 268 kts | 2° |
| 2026-05-05 19:05 | 47.62848 | 9.10312 | 10086 ft | 255 kts | 331° |
| 2026-05-05 19:05 | 47.64199 | 9.08832 | 9900 ft | 236 kts | 301° |
| 2026-05-05 19:06 | 47.64790 | 9.06661 | 9568 ft | 224 kts | 270° |
| 2026-05-05 19:06 | 47.64634 | 9.04427 | 9220 ft | 221 kts | 256° |
| 2026-05-05 19:06 | 47.64282 | 9.02187 | 8924 ft | 219 kts | 254° |
| 2026-05-05 19:06 | 47.63993 | 8.99969 | 8888 ft | 222 kts | 266° |
| 2026-05-05 19:07 | 47.64082 | 8.97697 | 8890 ft | 224 kts | 273° |
| 2026-05-05 19:07 | 47.64272 | 8.95374 | 8895 ft | 225 kts | 274° |
| 2026-05-05 19:07 | 47.64474 | 8.93071 | 8891 ft | 223 kts | 274° |
| 2026-05-05 19:07 | 47.64671 | 8.90879 | 8890 ft | 215 kts | 274° |
| 2026-05-05 19:08 | 47.64679 | 8.88673 | 8889 ft | 208 kts | 250° |
| 2026-05-05 19:08 | 47.63956 | 8.86890 | 8898 ft | 207 kts | 228° |
| 2026-05-05 19:08 | 47.62927 | 8.85352 | 8889 ft | 208 kts | 224° |
| 2026-05-05 19:08 | 47.61883 | 8.83903 | 8843 ft | 207 kts | 224° |
| 2026-05-05 19:09 | 47.60810 | 8.82430 | 8521 ft | 207 kts | 224° |
| 2026-05-05 19:09 | 47.59769 | 8.81004 | 8207 ft | 207 kts | 222° |
| 2026-05-05 19:09 | 47.58477 | 8.80038 | 7916 ft | 210 kts | 190° |
| 2026-05-05 19:09 | 47.57037 | 8.80347 | 7506 ft | 224 kts | 159° |
| 2026-05-05 19:10 | 47.55828 | 8.81936 | 7050 ft | 244 kts | 123° |
| 2026-05-05 19:10 | 47.55319 | 8.84384 | 6871 ft | 255 kts | 99° |
| 2026-05-05 19:10 | 47.55197 | 8.87025 | 6482 ft | 259 kts | 95° |
| 2026-05-05 19:10 | 47.54810 | 8.89582 | 6134 ft | 252 kts | 122° |
| 2026-05-05 19:11 | 47.53721 | 8.91531 | 6011 ft | 246 kts | 141° |
| 2026-05-05 19:11 | 47.52368 | 8.93043 | 5991 ft | 239 kts | 161° |
| 2026-05-05 19:11 | 47.50830 | 8.93508 | 6004 ft | 218 kts | 181° |
| 2026-05-05 19:11 | 47.49340 | 8.93565 | 5980 ft | 209 kts | 183° |
| 2026-05-05 19:12 | 47.47931 | 8.93585 | 5886 ft | 196 kts | 184° |
| 2026-05-05 19:12 | 47.46591 | 8.93599 | 5619 ft | 191 kts | 185° |
| 2026-05-05 19:12 | 47.45356 | 8.93131 | 5284 ft | 182 kts | 218° |
| 2026-05-05 19:12 | 47.44632 | 8.91675 | 5046 ft | 177 kts | 249° |
| 2026-05-05 19:13 | 47.44225 | 8.89933 | 5016 ft | 180 kts | 253° |
| 2026-05-05 19:13 | 47.43868 | 8.88170 | 5008 ft | 180 kts | 253° |
| 2026-05-05 19:13 | 47.43582 | 8.86372 | 5002 ft | 179 kts | 268° |
| 2026-05-05 19:13 | 47.43677 | 8.84540 | 5010 ft | 180 kts | 274° |
| 2026-05-05 19:14 | 47.43803 | 8.82703 | 5009 ft | 179 kts | 274° |
| 2026-05-05 19:14 | 47.43931 | 8.80944 | 4890 ft | 168 kts | 274° |
| 2026-05-05 19:14 | 47.44053 | 8.79261 | 4691 ft | 162 kts | 274° |
| 2026-05-05 19:14 | 47.44172 | 8.77633 | 4470 ft | 158 kts | 274° |
| 2026-05-05 19:15 | 47.44290 | 8.76017 | 4241 ft | 158 kts | 274° |
| 2026-05-05 19:15 | 47.44407 | 8.74410 | 4011 ft | 158 kts | 274° |
| 2026-05-05 19:15 | 47.44524 | 8.72799 | 3786 ft | 158 kts | 274° |
| 2026-05-05 19:15 | 47.44641 | 8.71189 | 3563 ft | 158 kts | 274° |
| 2026-05-05 19:16 | 47.44758 | 8.69580 | 3315 ft | 158 kts | 274° |
| 2026-05-05 19:16 | 47.44875 | 8.67969 | 3085 ft | 155 kts | 274° |
| 2026-05-05 19:16 | 47.44986 | 8.66435 | 2874 ft | 146 kts | 273° |
| 2026-05-05 19:16 | 47.45091 | 8.64970 | 2747 ft | 142 kts | 274° |
| 2026-05-05 19:17 | 47.45181 | 8.63524 | 2453 ft | 141 kts | 274° |
| 2026-05-05 19:17 | 47.45287 | 8.62069 | 2196 ft | 143 kts | 276° |
| 2026-05-05 19:17 | 47.45403 | 8.60607 | 1972 ft | 144 kts | 274° |
| 2026-05-05 19:17 | 47.45510 | 8.59141 | 1778 ft | 145 kts | 273° |
| 2026-05-05 19:18 | 47.45613 | 8.57663 | 1541 ft | 144 kts | 273° |
| 2026-05-05 19:18 | 47.45716 | 8.56260 | 1405 ft | 131 kts | 271° |
| 2026-05-05 19:18 | 47.45793 | 8.55131 | 1404 ft | 84 kts | 276° |
| 2026-05-05 19:18 | 47.45820 | 8.54725 | 1406 ft | 25 kts | 277° |
| 2026-05-05 19:19 | 47.45816 | 8.54475 | 1405 ft | 25 kts | 254° |
| 2026-05-05 19:19 | 47.45765 | 8.54299 | 1402 ft | 10 kts | 245° |
| 2026-05-05 19:19 | 47.45716 | 8.54216 | 1399 ft | 12 kts | 205° |
| 2026-05-05 19:19 | 47.45636 | 8.54236 | 1397 ft | 13 kts | 139° |
| 2026-05-05 19:20 | 47.45597 | 8.54358 | 1400 ft | 14 kts | 108° |
| 2026-05-05 19:20 | 47.45564 | 8.54502 | 1397 ft | 15 kts | 108° |
| 2026-05-05 19:20 | 47.45529 | 8.54660 | 1404 ft | 17 kts | 108° |
| 2026-05-05 19:20 | 47.45488 | 8.54837 | 1401 ft | 19 kts | 109° |
| 2026-05-05 19:21 | 47.45445 | 8.55019 | 1407 ft | 19 kts | 109° |
| 2026-05-05 19:21 | 47.45411 | 8.55170 | 1401 ft | 12 kts | 109° |
| 2026-05-05 19:21 | 47.45392 | 8.55248 | 1399 ft | 5 kts | 111° |
| 2026-05-05 19:21 | 47.45387 | 8.55263 | 1406 ft | 0 kts | 115° |
| 2026-05-05 19:22 | 47.45386 | 8.55268 | 1398 ft | 2 kts | 115° |
| 2026-05-05 19:22 | 47.45380 | 8.55288 | 1399 ft | 2 kts | 115° |
| 2026-05-05 19:23 | 47.45376 | 8.55300 | 1398 ft | 1 kts | 115° |
| 2026-05-05 19:23 | 47.45374 | 8.55304 | 1398 ft | 0 kts | 115° |
| 2026-05-05 19:23 | 47.45366 | 8.55326 | 1402 ft | 4 kts | 118° |
| 2026-05-05 19:23 | 47.45354 | 8.55358 | 1401 ft | 4 kts | 119° |
| 2026-05-05 19:24 | 47.45339 | 8.55398 | 1401 ft | 4 kts | 119° |
| 2026-05-05 19:24 | 47.45328 | 8.55428 | 1399 ft | 3 kts | 119° |
| 2026-05-05 19:24 | 47.45314 | 8.55464 | 1401 ft | 6 kts | 119° |
| 2026-05-05 19:24 | 47.45294 | 8.55515 | 1404 ft | 5 kts | 119° |
| 2026-05-05 19:25 | 47.45280 | 8.55556 | 1404 ft | 5 kts | 113° |
| 2026-05-05 19:25 | 47.45273 | 8.55618 | 1402 ft | 6 kts | 96° |
| 2026-05-05 19:25 | 47.45268 | 8.55673 | 1397 ft | 5 kts | 96° |
| 2026-05-05 19:25 | 47.45281 | 8.55688 | 1402 ft | 2 kts | 19° |
| 2026-05-05 19:26 | 47.45301 | 8.55694 | 1377 ft | 5 kts | 8° |
| 2026-05-05 19:26 | 47.45325 | 8.55698 | 1400 ft | 2 kts | 5° |
| 2026-05-05 19:26 | 47.45339 | 8.55701 | 1397 ft | 2 kts | 6° |
| 2026-05-05 19:26 | 47.45346 | 8.55702 | 1401 ft | 0 kts | 6° |
| 2026-05-05 19:27 | 47.45349 | 8.55702 | 1400 ft | 0 kts | 6° |